createdAt,value
2019-05-21T00:01:03.768Z,90.10
2019-05-21T00:03:32.416Z,90.30
2019-05-21T00:06:01.082Z,90.00
2019-05-21T00:08:29.608Z,90.00
2019-05-21T00:10:58.289Z,90.20
2019-05-21T00:13:26.901Z,90.40
2019-05-21T00:15:55.516Z,90.50
2019-05-21T00:18:24.034Z,90.70
2019-05-21T00:20:52.666Z,90.60
2019-05-21T00:23:21.232Z,90.50
2019-05-21T00:25:49.931Z,90.30
2019-05-21T00:28:37.345Z,90.30
2019-05-21T00:31:43.219Z,90.20
2019-05-21T00:34:48.713Z,90.10
2019-05-21T00:37:53.880Z,90.10
2019-05-21T00:40:58.941Z,90.20
2019-05-21T00:43:41.928Z,90.30
2019-05-21T00:46:10.733Z,90.50
2019-05-21T00:48:39.887Z,90.60
2019-05-21T00:51:08.536Z,90.60
2019-05-21T00:53:37.083Z,90.60
2019-05-21T00:56:05.807Z,90.70
2019-05-21T00:58:34.458Z,90.80
2019-05-21T01:01:03.084Z,90.80
2019-05-21T01:03:31.848Z,90.70
2019-05-21T01:06:00.647Z,90.60
2019-05-21T01:08:29.543Z,90.60
2019-05-21T01:10:58.247Z,90.70
2019-05-21T01:13:26.939Z,90.90
2019-05-21T01:15:55.595Z,90.90
2019-05-21T01:18:24.151Z,91.00
2019-05-21T01:20:52.763Z,91.10
2019-05-21T01:23:21.516Z,90.80
2019-05-21T01:25:50.175Z,90.80
2019-05-21T01:28:18.839Z,90.80
2019-05-21T01:30:47.722Z,90.90
2019-05-21T01:33:16.323Z,90.90
2019-05-21T01:35:45.141Z,90.80
2019-05-21T01:38:13.780Z,90.90
2019-05-21T01:40:42.702Z,90.80
2019-05-21T01:43:11.269Z,90.90
2019-05-21T01:45:39.968Z,90.80
2019-05-21T01:48:08.514Z,90.80
2019-05-21T01:50:37.259Z,90.80
2019-05-21T01:53:05.823Z,90.70
2019-05-21T01:55:34.431Z,90.60
2019-05-21T01:58:03.232Z,90.60
2019-05-21T02:00:31.810Z,90.60
2019-05-21T02:03:00.366Z,90.70
2019-05-21T02:05:32.930Z,90.70
2019-05-21T02:07:59.453Z,90.70
2019-05-21T02:10:28.181Z,90.70
2019-05-21T02:12:56.899Z,90.40
2019-05-21T02:15:25.935Z,90.40
2019-05-21T02:17:54.517Z,90.30
2019-05-21T02:20:23.215Z,90.30
2019-05-21T02:22:52.032Z,90.70
2019-05-21T02:25:20.851Z,90.40
2019-05-21T02:27:49.603Z,90.40
2019-05-21T02:30:18.510Z,90.40
2019-05-21T02:32:47.240Z,90.30
2019-05-21T02:35:16.003Z,90.40
2019-05-21T02:37:44.656Z,90.50
2019-05-21T02:40:14.367Z,90.10
2019-05-21T02:42:43.017Z,90.40
2019-05-21T02:45:12.047Z,90.30
2019-05-21T02:47:40.893Z,90.40
2019-05-21T02:50:09.984Z,90.40
2019-05-21T02:52:38.693Z,90.40
2019-05-21T02:55:07.464Z,90.60
2019-05-21T02:57:40.256Z,90.50
2019-05-21T03:00:18.859Z,90.60
2019-05-21T03:02:48.085Z,90.50
2019-05-21T03:05:16.725Z,90.60
2019-05-21T03:07:45.525Z,90.60
2019-05-21T03:10:14.244Z,90.60
2019-05-21T03:12:42.888Z,90.60
2019-05-21T03:15:11.603Z,90.70
2019-05-21T03:17:40.242Z,90.50
2019-05-21T03:20:09.667Z,90.50
2019-05-21T03:22:38.338Z,90.50
2019-05-21T03:25:07.667Z,90.60
2019-05-21T03:27:36.309Z,90.50
2019-05-21T03:30:06.812Z,90.50
2019-05-21T03:32:35.508Z,90.40
2019-05-21T03:35:08.442Z,90.50
2019-05-21T03:37:37.143Z,90.30
2019-05-21T03:40:07.000Z,90.30
2019-05-21T03:42:35.551Z,90.30
2019-05-21T03:45:07.838Z,90.30
2019-05-21T03:47:35.961Z,90.30
2019-05-21T03:50:06.592Z,90.30
2019-05-21T03:52:35.231Z,90.20
2019-05-21T03:55:04.456Z,90.20
2019-05-21T03:57:33.080Z,90.10
2019-05-21T04:00:01.905Z,90.00
2019-05-21T04:02:30.580Z,90.00
2019-05-21T04:04:59.293Z,89.90
2019-05-21T04:07:27.850Z,89.90
2019-05-21T04:09:56.670Z,89.90
2019-05-21T04:12:25.306Z,89.90
2019-05-21T04:15:01.747Z,90.00
2019-05-21T04:17:35.208Z,89.80
2019-05-21T04:20:06.236Z,89.60
2019-05-21T04:22:36.516Z,89.70
2019-05-21T04:25:06.349Z,89.80
2019-05-21T04:27:34.988Z,89.80
2019-05-21T04:30:05.245Z,89.70
2019-05-21T04:32:34.103Z,89.50
2019-05-21T04:35:02.869Z,89.40
2019-05-21T04:37:31.520Z,89.20
2019-05-21T04:40:00.243Z,88.90
2019-05-21T04:42:28.932Z,89.00
2019-05-21T04:44:57.857Z,89.00
2019-05-21T04:47:26.639Z,89.10
2019-05-21T04:49:55.282Z,88.90
2019-05-21T04:52:24.100Z,88.60
2019-05-21T04:54:52.869Z,88.50
2019-05-21T04:57:21.519Z,88.20
2019-05-21T04:59:50.000Z,88.00
2019-05-21T05:02:18.734Z,87.70
2019-05-21T05:04:47.290Z,87.50
2019-05-21T05:07:27.589Z,87.60
2019-05-21T05:09:46.269Z,87.40
2019-05-21T05:12:14.995Z,87.20
2019-05-21T05:14:43.623Z,87.30
2019-05-21T05:17:12.403Z,87.30
2019-05-21T05:19:41.039Z,87.30
2019-05-21T05:22:09.783Z,87.30
2019-05-21T05:24:38.410Z,87.20
2019-05-21T05:27:07.067Z,87.10
2019-05-21T05:29:35.691Z,86.70
2019-05-21T05:32:04.353Z,86.80
2019-05-21T05:34:33.128Z,86.80
2019-05-21T05:37:02.053Z,86.60
2019-05-21T05:39:30.725Z,86.60
2019-05-21T05:41:59.277Z,86.70
2019-05-21T05:44:27.811Z,86.70
2019-05-21T05:46:56.403Z,86.60
2019-05-21T05:49:26.543Z,86.60
2019-05-21T05:51:55.179Z,86.50
2019-05-21T05:54:24.011Z,86.10
2019-05-21T05:56:52.531Z,86.20
2019-05-21T05:59:21.200Z,86.20
2019-05-21T06:01:49.990Z,86.20
2019-05-21T06:04:18.732Z,85.70
2019-05-21T06:06:47.360Z,85.80
2019-05-21T06:09:16.108Z,85.90
2019-05-21T06:11:44.805Z,85.80
2019-05-21T06:14:13.459Z,86.00
2019-05-21T06:16:42.185Z,86.70
2019-05-21T06:19:10.833Z,87.30
2019-05-21T06:21:39.655Z,87.70
2019-05-21T06:24:08.497Z,88.40
2019-05-21T06:26:37.047Z,88.50
2019-05-21T06:29:06.011Z,88.60
2019-05-21T06:31:34.717Z,88.90
2019-05-21T06:34:03.507Z,89.90
2019-05-21T06:36:32.213Z,89.50
2019-05-21T06:39:00.900Z,89.80
2019-05-21T06:41:29.915Z,90.10
2019-05-21T06:43:58.709Z,89.90
2019-05-21T06:46:27.450Z,89.70
2019-05-21T06:48:56.155Z,89.60
2019-05-21T06:51:24.813Z,88.70
2019-05-21T06:53:53.368Z,88.90
2019-05-21T06:56:22.021Z,88.90
2019-05-21T06:58:50.675Z,89.10
2019-05-21T07:01:27.703Z,88.60
2019-05-21T07:03:49.679Z,88.40
2019-05-21T07:06:18.500Z,88.50
2019-05-21T07:08:47.058Z,88.40
2019-05-21T07:11:15.969Z,88.00
2019-05-21T07:13:44.750Z,88.00
2019-05-21T07:16:13.463Z,87.70
2019-05-21T07:18:42.112Z,87.20
2019-05-21T07:21:10.967Z,86.90
2019-05-21T07:23:39.626Z,86.70
2019-05-21T07:26:08.355Z,86.50
2019-05-21T07:28:36.922Z,86.10
2019-05-21T07:31:05.639Z,86.20
2019-05-21T07:33:34.264Z,86.10
2019-05-21T07:36:03.010Z,86.30
2019-05-21T07:38:31.815Z,85.80
2019-05-21T07:41:00.451Z,86.00
2019-05-21T07:43:29.222Z,85.60
2019-05-21T07:45:57.797Z,85.90
2019-05-21T07:48:26.695Z,86.20
2019-05-21T07:50:55.260Z,86.40
2019-05-21T07:53:24.005Z,86.50
2019-05-21T07:55:52.692Z,86.50
2019-05-21T07:58:21.289Z,87.00
2019-05-21T08:00:50.060Z,88.70
2019-05-21T08:03:18.989Z,90.30
2019-05-21T08:05:47.662Z,90.00
2019-05-21T08:08:16.410Z,90.20
2019-05-21T08:10:45.022Z,90.30
2019-05-21T08:13:13.776Z,90.10
2019-05-21T08:15:42.504Z,90.60
2019-05-21T08:18:11.205Z,90.70
2019-05-21T08:20:40.004Z,90.70
2019-05-21T08:23:08.724Z,90.40
2019-05-21T08:25:37.576Z,90.30
2019-05-21T08:28:06.216Z,90.20
2019-05-21T08:30:34.911Z,90.10
2019-05-21T08:33:03.575Z,90.70
2019-05-21T08:35:32.283Z,91.10
2019-05-21T08:38:00.914Z,91.30
2019-05-21T08:40:30.197Z,91.40
2019-05-21T08:42:58.800Z,91.60
2019-05-21T08:45:27.605Z,91.70
2019-05-21T08:47:56.367Z,91.80
2019-05-21T08:50:25.003Z,91.80
2019-05-21T08:52:53.965Z,92.20
2019-05-21T08:55:22.595Z,92.30
2019-05-21T08:58:06.232Z,92.50
2019-05-21T09:00:23.194Z,92.80
2019-05-21T09:02:51.909Z,92.60
2019-05-21T09:05:20.579Z,92.70
2019-05-21T09:07:53.340Z,93.10
2019-05-21T09:10:20.102Z,93.30
2019-05-21T09:12:48.720Z,93.60
2019-05-21T09:15:18.053Z,93.10
2019-05-21T09:17:46.734Z,92.90
2019-05-21T09:20:16.083Z,93.10
2019-05-21T09:22:44.717Z,93.30
2019-05-21T09:25:14.192Z,93.70
2019-05-21T09:27:42.937Z,93.20
2019-05-21T09:30:12.295Z,93.20
2019-05-21T09:32:40.807Z,93.00
2019-05-21T09:35:11.035Z,93.10
2019-05-21T09:37:39.579Z,93.20
2019-05-21T09:40:09.531Z,93.20
2019-05-21T09:42:38.220Z,93.30
2019-05-21T09:45:08.776Z,93.10
2019-05-21T09:47:37.469Z,93.00
2019-05-21T09:50:09.580Z,92.90
2019-05-21T09:52:38.367Z,93.00
2019-05-21T09:55:07.755Z,93.60
2019-05-21T09:57:53.175Z,93.40
2019-05-21T10:00:40.088Z,93.30
2019-05-21T10:03:13.052Z,93.20
2019-05-21T10:05:41.769Z,93.20
2019-05-21T10:08:10.660Z,93.40
2019-05-21T10:10:39.335Z,93.60
2019-05-21T10:13:07.959Z,93.60
2019-05-21T10:15:36.735Z,93.70
2019-05-21T10:18:05.773Z,93.50
2019-05-21T10:20:34.594Z,93.70
2019-05-21T10:23:03.215Z,93.90
2019-05-21T10:25:32.068Z,93.70
2019-05-21T10:28:00.931Z,93.40
2019-05-21T10:30:29.554Z,93.70
2019-05-21T10:32:58.295Z,94.00
2019-05-21T10:35:27.011Z,94.10
2019-05-21T10:37:55.726Z,93.90
2019-05-21T10:40:24.515Z,94.10
2019-05-21T10:42:53.242Z,93.90
2019-05-21T10:45:21.995Z,94.00
2019-05-21T10:47:50.802Z,94.00
2019-05-21T10:50:19.837Z,93.80
2019-05-21T10:52:48.481Z,93.90
2019-05-21T10:55:18.818Z,94.00
2019-05-21T10:57:47.471Z,94.20
2019-05-21T11:00:22.457Z,94.20
2019-05-21T11:02:50.411Z,94.40
2019-05-21T11:05:20.835Z,94.20
2019-05-21T11:07:49.510Z,94.20
2019-05-21T11:10:18.259Z,94.10
2019-05-21T11:12:46.905Z,94.20
2019-05-21T11:15:15.933Z,94.20
2019-05-21T11:17:53.600Z,94.00
2019-05-21T11:20:15.353Z,93.90
2019-05-21T11:22:43.992Z,93.70
2019-05-21T11:25:12.916Z,93.90
2019-05-21T11:27:41.579Z,94.00
2019-05-21T11:30:10.618Z,93.80
2019-05-21T11:32:39.412Z,93.90
2019-05-21T11:35:08.826Z,93.90
2019-05-21T11:37:37.612Z,93.70
2019-05-21T11:40:08.662Z,93.90
2019-05-21T11:42:37.430Z,94.00
2019-05-21T11:45:07.723Z,94.20
2019-05-21T11:47:36.272Z,94.50
2019-05-21T11:50:09.549Z,93.90
2019-05-21T11:52:38.180Z,94.00
2019-05-21T11:55:07.615Z,94.10
2019-05-21T11:57:36.337Z,94.10
2019-05-21T12:00:09.967Z,94.10
2019-05-21T12:02:40.373Z,93.80
2019-05-21T12:05:09.680Z,94.00
2019-05-21T12:07:38.303Z,93.90
2019-05-21T12:10:08.705Z,94.00
2019-05-21T12:12:37.353Z,94.00
2019-05-21T12:15:08.059Z,94.10
2019-05-21T12:17:36.819Z,94.50
2019-05-21T12:20:07.537Z,94.50
2019-05-21T12:22:36.182Z,94.10
2019-05-21T12:25:06.490Z,94.20
2019-05-21T12:27:35.343Z,94.20
2019-05-21T12:30:06.932Z,93.80
2019-05-21T12:32:36.028Z,94.00
2019-05-21T12:35:05.686Z,94.10
2019-05-21T12:37:34.496Z,94.20
2019-05-21T12:40:04.787Z,93.60
2019-05-21T12:42:33.604Z,93.50
2019-05-21T12:45:02.248Z,93.40
2019-05-21T12:47:30.951Z,93.70
2019-05-21T12:49:59.610Z,93.30
2019-05-21T12:52:28.309Z,93.70
2019-05-21T12:54:57.103Z,93.70
2019-05-21T12:57:25.725Z,93.80
2019-05-21T12:59:54.426Z,93.60
2019-05-21T13:02:23.310Z,93.40
2019-05-21T13:04:51.965Z,93.60
2019-05-21T13:07:20.879Z,93.70
2019-05-21T13:09:49.846Z,94.00
2019-05-21T13:12:18.555Z,93.80
2019-05-21T13:14:47.179Z,93.40
2019-05-21T13:17:15.894Z,93.00
2019-05-21T13:19:44.519Z,93.10
2019-05-21T13:22:13.512Z,93.20
2019-05-21T13:24:42.139Z,93.00
2019-05-21T13:27:10.848Z,93.20
2019-05-21T13:29:39.798Z,92.80
2019-05-21T13:32:08.508Z,92.80
2019-05-21T13:34:37.394Z,93.00
2019-05-21T13:37:06.561Z,93.00
2019-05-21T13:39:48.790Z,92.90
2019-05-21T13:42:05.643Z,92.70
2019-05-21T13:44:34.327Z,92.60
2019-05-21T13:47:03.323Z,92.50
2019-05-21T13:49:32.335Z,93.00
2019-05-21T13:52:00.925Z,93.00
2019-05-21T13:54:29.619Z,92.90
2019-05-21T13:56:58.259Z,93.40
2019-05-21T13:59:27.047Z,93.70
2019-05-21T14:01:55.752Z,93.50
2019-05-21T14:04:24.518Z,93.40
2019-05-21T14:06:53.547Z,93.50
2019-05-21T14:09:22.342Z,93.40
2019-05-21T14:11:51.151Z,93.50
2019-05-21T14:14:19.838Z,93.80
2019-05-21T14:16:48.795Z,93.80
2019-05-21T14:19:17.497Z,93.70
2019-05-21T14:21:46.216Z,93.90
2019-05-21T14:24:14.967Z,93.70
2019-05-21T14:26:43.886Z,93.70
2019-05-21T14:29:12.554Z,93.80
2019-05-21T14:31:41.169Z,93.60
2019-05-21T14:34:09.800Z,93.50
2019-05-21T14:36:38.499Z,93.40
2019-05-21T14:39:09.589Z,93.70
2019-05-21T14:41:38.325Z,93.70
2019-05-21T14:44:07.018Z,93.80
2019-05-21T14:46:35.678Z,93.70
2019-05-21T14:49:04.380Z,93.80
2019-05-21T14:51:33.059Z,93.70
2019-05-21T14:54:05.425Z,93.40
2019-05-21T14:56:34.052Z,93.40
2019-05-21T14:59:02.761Z,93.70
2019-05-21T15:01:31.593Z,94.00
2019-05-21T15:04:00.221Z,93.90
2019-05-21T15:06:29.008Z,94.30
2019-05-21T15:08:57.572Z,93.70
2019-05-21T15:11:26.284Z,93.60
2019-05-21T15:13:54.849Z,93.80
2019-05-21T15:16:23.655Z,93.70
2019-05-21T15:18:52.309Z,93.70
2019-05-21T15:21:22.777Z,93.80
2019-05-21T15:23:51.695Z,93.70
2019-05-21T15:26:20.609Z,93.40
2019-05-21T15:28:49.464Z,93.40
2019-05-21T15:31:18.061Z,93.60
2019-05-21T15:33:46.813Z,93.80
2019-05-21T15:36:15.480Z,93.90
2019-05-21T15:38:50.336Z,93.90
2019-05-21T15:41:14.420Z,94.00
2019-05-21T15:43:43.231Z,93.70
2019-05-21T15:46:11.963Z,93.70
2019-05-21T15:48:40.652Z,93.60
2019-05-21T15:51:09.380Z,93.90
2019-05-21T15:53:38.093Z,93.90
2019-05-21T15:56:06.653Z,93.70
2019-05-21T15:58:35.245Z,93.80
2019-05-21T16:01:04.203Z,93.90
2019-05-21T16:03:32.945Z,94.00
2019-05-21T16:06:01.502Z,94.00
2019-05-21T16:08:30.276Z,93.80
2019-05-21T16:10:58.947Z,94.00
2019-05-21T16:13:27.828Z,94.20
2019-05-21T16:15:56.467Z,93.80
2019-05-21T16:18:25.398Z,93.70
2019-05-21T16:20:54.312Z,93.80
2019-05-21T16:23:22.959Z,94.00
2019-05-21T16:25:51.932Z,94.20
2019-05-21T16:28:20.656Z,93.70
2019-05-21T16:30:49.341Z,93.60
2019-05-21T16:33:17.940Z,93.60
2019-05-21T16:35:46.628Z,93.40
2019-05-21T16:38:15.380Z,93.70
2019-05-21T16:40:44.095Z,93.80
2019-05-21T16:43:12.819Z,93.80
2019-05-21T16:45:41.526Z,93.80
2019-05-21T16:48:10.258Z,93.80
2019-05-21T16:50:38.818Z,94.00
2019-05-21T16:53:07.643Z,93.80
2019-05-21T16:55:36.370Z,93.80
2019-05-21T16:58:05.052Z,93.90
2019-05-21T17:00:33.992Z,94.10
2019-05-21T17:03:02.701Z,94.40
2019-05-21T17:05:31.624Z,94.40
2019-05-21T17:08:00.313Z,94.30
2019-05-21T17:10:29.520Z,94.50
2019-05-21T17:12:58.475Z,94.50
2019-05-21T17:15:27.231Z,94.40
2019-05-21T17:17:56.139Z,94.30
2019-05-21T17:20:24.888Z,94.30
2019-05-21T17:22:53.674Z,94.20
2019-05-21T17:25:22.462Z,94.20
2019-05-21T17:27:51.056Z,94.10
2019-05-21T17:30:20.008Z,94.40
2019-05-21T17:32:48.651Z,94.30
2019-05-21T17:35:17.590Z,94.30
2019-05-21T17:37:46.292Z,94.40
2019-05-21T17:40:15.458Z,94.30
2019-05-21T17:42:44.164Z,94.30
2019-05-21T17:45:13.597Z,93.90
2019-05-21T17:47:42.304Z,93.80
2019-05-21T17:50:11.489Z,94.00
2019-05-21T17:52:40.254Z,93.90
2019-05-21T17:55:09.264Z,94.00
2019-05-21T17:57:38.227Z,94.20
2019-05-21T18:00:11.251Z,94.10
2019-05-21T18:02:40.266Z,94.00
2019-05-21T18:05:10.408Z,94.20
2019-05-21T18:07:41.112Z,94.10
2019-05-21T18:10:10.789Z,94.10
2019-05-21T18:12:40.072Z,94.00
2019-05-21T18:15:11.491Z,94.10
2019-05-21T18:17:41.452Z,94.10
2019-05-21T18:20:12.258Z,94.30
2019-05-21T18:22:42.863Z,93.70
2019-05-21T18:25:13.311Z,93.70
2019-05-21T18:27:42.666Z,93.70
2019-05-21T18:30:12.207Z,93.90
2019-05-21T18:32:41.240Z,93.90
2019-05-21T18:35:10.354Z,93.70
2019-05-21T18:37:39.511Z,93.60
2019-05-21T18:40:09.669Z,93.80
2019-05-21T18:42:38.416Z,94.00
2019-05-21T18:45:08.248Z,93.90
2019-05-21T18:47:37.018Z,93.90
2019-05-21T18:50:09.674Z,93.80
2019-05-21T18:52:38.462Z,94.00
2019-05-21T18:55:07.775Z,93.70
2019-05-21T18:57:36.585Z,93.40
2019-05-21T19:00:10.091Z,93.90
2019-05-21T19:02:38.872Z,93.50
2019-05-21T19:05:08.543Z,93.40
2019-05-21T19:07:37.214Z,93.50
2019-05-21T19:10:10.561Z,93.50
2019-05-21T19:12:39.620Z,93.50
2019-05-21T19:15:09.394Z,93.40
2019-05-21T19:17:38.127Z,93.50
2019-05-21T19:20:10.445Z,93.60
2019-05-21T19:22:39.234Z,93.50
2019-05-21T19:25:09.465Z,93.70
2019-05-21T19:27:38.165Z,93.50
2019-05-21T19:30:08.200Z,93.30
2019-05-21T19:32:36.959Z,93.30
2019-05-21T19:35:08.999Z,93.40
2019-05-21T19:37:37.761Z,93.30
2019-05-21T19:40:08.093Z,93.30
2019-05-21T19:42:36.876Z,93.10
2019-05-21T19:45:07.440Z,93.10
2019-05-21T19:47:36.526Z,93.00
2019-05-21T19:50:10.200Z,92.80
2019-05-21T19:52:38.916Z,93.00
2019-05-21T19:55:08.428Z,92.80
2019-05-21T19:57:38.447Z,92.80
2019-05-21T20:00:08.702Z,93.00
2019-05-21T20:02:37.619Z,93.20
2019-05-21T20:05:08.352Z,93.30
2019-05-21T20:07:37.728Z,93.20
2019-05-21T20:10:07.764Z,93.10
2019-05-21T20:12:36.534Z,93.10
2019-05-21T20:15:06.921Z,93.20
2019-05-21T20:17:35.875Z,93.30
2019-05-21T20:20:06.784Z,93.30
2019-05-21T20:22:35.579Z,93.60
2019-05-21T20:25:06.905Z,93.50
2019-05-21T20:27:36.333Z,93.50
2019-05-21T20:30:12.758Z,93.30
2019-05-21T20:32:38.720Z,93.30
2019-05-21T20:35:08.875Z,93.50
2019-05-21T20:37:39.729Z,93.60
2019-05-21T20:40:10.897Z,93.50
2019-05-21T20:42:40.703Z,93.70
2019-05-21T20:45:13.200Z,93.60
2019-05-21T20:47:42.061Z,93.50
2019-05-21T20:50:12.896Z,93.70
2019-05-21T20:52:42.134Z,93.70
2019-05-21T20:55:10.936Z,93.80
2019-05-21T20:57:39.656Z,93.70
2019-05-21T21:00:10.923Z,93.70
2019-05-21T21:02:41.720Z,93.70
2019-05-21T21:05:11.440Z,93.80
2019-05-21T21:07:41.237Z,93.90
2019-05-21T21:10:12.000Z,93.90
2019-05-21T21:12:41.391Z,93.70
2019-05-21T21:15:11.650Z,93.70
2019-05-21T21:17:40.544Z,93.70
2019-05-21T21:20:09.661Z,93.70
2019-05-21T21:22:38.396Z,93.70
2019-05-21T21:25:07.359Z,93.50
2019-05-21T21:27:36.681Z,93.60
2019-05-21T21:30:07.090Z,93.80
2019-05-21T21:32:36.212Z,94.00
2019-05-21T21:35:06.696Z,93.80
2019-05-21T21:37:35.432Z,93.80
2019-05-21T21:40:07.064Z,93.80
2019-05-21T21:42:35.795Z,93.70
2019-05-21T21:45:06.417Z,93.50
2019-05-21T21:47:35.229Z,94.00
2019-05-21T21:50:06.517Z,93.60
2019-05-21T21:52:35.827Z,93.50
2019-05-21T21:55:07.128Z,93.40
2019-05-21T21:57:36.015Z,93.50
2019-05-21T22:00:10.731Z,93.50
2019-05-21T22:02:39.521Z,93.70
2019-05-21T22:05:10.777Z,93.60
2019-05-21T22:07:39.500Z,93.70
2019-05-21T22:10:09.588Z,93.80
2019-05-21T22:12:38.805Z,93.80
2019-05-21T22:15:07.931Z,93.70
2019-05-21T22:17:36.621Z,93.80
2019-05-21T22:20:08.313Z,93.90
2019-05-21T22:22:37.396Z,93.90
2019-05-21T22:25:07.053Z,93.80
2019-05-21T22:27:36.054Z,93.80
2019-05-21T22:30:06.709Z,93.80
2019-05-21T22:32:35.359Z,93.60
2019-05-21T22:35:05.568Z,93.60
2019-05-21T22:37:34.715Z,93.70
2019-05-21T22:40:03.955Z,93.70
2019-05-21T22:42:32.866Z,93.70
2019-05-21T22:45:07.825Z,93.80
2019-05-21T22:47:32.342Z,93.70
2019-05-21T22:50:01.071Z,93.70
2019-05-21T22:52:29.811Z,93.70
2019-05-21T22:54:58.672Z,93.90
2019-05-21T22:57:27.368Z,93.90
2019-05-21T22:59:56.038Z,93.80
2019-05-21T23:02:26.653Z,93.90
2019-05-21T23:04:55.237Z,94.00
2019-05-21T23:07:23.994Z,94.00
2019-05-21T23:09:54.610Z,94.10
2019-05-21T23:12:23.451Z,94.00
2019-05-21T23:14:52.323Z,93.80
2019-05-21T23:17:21.363Z,93.60
2019-05-21T23:19:50.876Z,93.60
2019-05-21T23:22:22.232Z,93.70
2019-05-21T23:24:50.960Z,93.70
2019-05-21T23:27:20.781Z,93.80
2019-05-21T23:29:50.050Z,93.70
2019-05-21T23:32:19.371Z,93.70
2019-05-21T23:34:49.389Z,93.60
2019-05-21T23:37:21.390Z,93.60
2019-05-21T23:39:53.008Z,93.70
2019-05-21T23:42:29.673Z,93.60
2019-05-21T23:44:53.303Z,93.60
2019-05-21T23:47:23.642Z,93.60
2019-05-21T23:49:52.247Z,93.60
2019-05-21T23:52:20.914Z,93.90
2019-05-21T23:54:49.618Z,93.50
2019-05-21T23:57:22.809Z,93.50
2019-05-21T23:59:51.507Z,93.60
